Time;durP1;ratioP1;P1;durP2;ratioP2;P2;SDS_P1;SDS_P2;PMS_P1;PMS_P2;Temp;Humidity;BMP_temperature;BMP_pressure;BME280_temperature;BME280_humidity;BME280_pressure;Samples;Min_cycle;Max_cycle;Signal;HPM_P1;HPM_P2
2022/09/21 00:00:48;;;;;;;1.30;1.00;;;;;;;22.96;39.81;94940.78;4995974;28;20487;-62
2022/09/21 00:03:14;;;;;;;1.75;0.85;;;;;;;23.53;39.46;95035.88;4997679;28;20030;-62
2022/09/21 00:05:40;;;;;;;1.60;1.00;;;;;;;23.69;39.74;95051.34;4999885;28;20041;-62
2022/09/21 00:08:05;;;;;;;1.52;1.05;;;;;;;23.29;39.53;95000.41;4999053;28;20434;-62
2022/09/21 00:10:31;;;;;;;1.92;1.25;;;;;;;23.68;39.50;95052.63;4996460;28;20041;-62
2022/09/21 00:12:57;;;;;;;1.85;1.00;;;;;;;23.21;39.84;94988.56;4985364;28;20395;-62
2022/09/21 00:15:23;;;;;;;1.35;1.10;;;;;;;23.65;39.70;95046.19;4996924;28;20046;-62
2022/09/21 00:17:51;;;;;;;1.30;0.98;;;;;;;23.10;39.62;94972.34;5002800;28;20044;-62
2022/09/21 00:20:17;;;;;;;1.40;1.20;;;;;;;23.52;39.68;95045.28;5003903;28;20038;-61
2022/09/21 00:22:43;;;;;;;1.88;1.00;;;;;;;23.52;39.80;95046.03;4992172;28;20116;-62
2022/09/21 00:25:08;;;;;;;1.15;0.90;;;;;;;23.42;40.07;95030.50;4987441;28;20490;-62
2022/09/21 00:27:34;;;;;;;2.42;1.30;;;;;;;23.07;40.11;94965.19;4993342;28;20040;-62
2022/09/21 00:30:01;;;;;;;1.55;1.10;;;;;;;23.69;40.02;95054.09;4978237;28;20148;-60
2022/09/21 00:32:27;;;;;;;1.92;1.17;;;;;;;23.66;39.80;95047.69;4995383;28;20038;-63
2022/09/21 00:34:52;;;;;;;1.33;1.02;;;;;;;23.66;39.93;95046.94;4991060;28;20566;-60
2022/09/21 00:37:18;;;;;;;1.38;1.00;;;;;;;23.27;40.10;95002.88;4989438;28;20053;-61
2022/09/21 00:39:44;;;;;;;1.60;1.27;;;;;;;23.46;40.02;95031.72;4980913;28;20085;-61
2022/09/21 00:42:13;;;;;;;1.60;1.00;;;;;;;23.24;40.02;94993.00;4995493;28;20053;-60
2022/09/21 00:44:38;;;;;;;1.30;0.90;;;;;;;23.33;40.19;95006.31;4981627;28;20034;-60
2022/09/21 00:47:10;;;;;;;1.67;1.10;;;;;;;22.72;39.93;94926.34;4985368;28;20108;-61
2022/09/21 00:49:36;;;;;;;1.77;1.10;;;;;;;23.50;39.98;95043.06;4971618;28;20037;-61
2022/09/21 00:52:03;;;;;;;1.35;1.00;;;;;;;23.22;39.87;95000.97;4973869;28;20072;-61
2022/09/21 00:54:32;;;;;;;1.80;1.13;;;;;;;23.61;39.79;95061.31;4986946;28;20121;-61
2022/09/21 00:57:00;;;;;;;1.67;1.20;;;;;;;23.24;40.16;95020.25;4992060;28;20035;-60
2022/09/21 00:59:25;;;;;;;1.63;1.10;;;;;;;23.08;39.94;94974.84;4971507;28;20297;-61
2022/09/21 01:01:51;;;;;;;1.77;1.10;;;;;;;23.50;39.94;95031.44;4987580;28;20116;-61
2022/09/21 01:04:17;;;;;;;1.17;1.02;;;;;;;23.12;39.85;94980.75;4977763;28;20038;-61
2022/09/21 01:06:43;;;;;;;1.65;1.30;;;;;;;23.59;39.89;95039.28;4978792;28;20507;-61
2022/09/21 01:09:08;;;;;;;1.40;0.90;;;;;;;23.04;40.28;94968.91;4991945;28;20072;-61
2022/09/21 01:12:00;;;;;;;2.05;1.20;;;;;;;23.51;39.90;95039.13;4984996;28;20038;-61
2022/09/21 01:14:52;;;;;;;1.85;1.02;;;;;;;23.58;40.25;95048.72;4976170;28;20041;-61
2022/09/21 01:17:41;;;;;;;1.52;1.00;;;;;;;23.62;39.99;95049.91;4997915;28;20577;-62
2022/09/21 01:20:25;;;;;;;1.67;1.20;;;;;;;23.61;39.96;95050.41;4985953;28;20042;-62
2022/09/21 01:23:28;;;;;;;1.60;1.10;;;;;;;23.15;40.26;94977.00;4982762;28;20085;-62
2022/09/21 01:26:15;;;;;;;1.60;1.00;;;;;;;23.59;39.95;95044.75;4989029;28;20042;-63
2022/09/21 01:29:18;;;;;;;1.30;1.00;;;;;;;23.60;40.29;95040.75;4995085;28;20085;-62
2022/09/21 01:31:56;;;;;;;1.50;1.10;;;;;;;22.94;39.80;94942.50;4990484;28;20053;-62
2022/09/21 01:34:35;;;;;;;1.58;1.05;;;;;;;23.57;39.85;95028.13;4999660;28;20038;-62
2022/09/21 01:37:03;;;;;;;1.63;1.20;;;;;;;23.57;40.28;95031.63;4971680;28;20037;-62
2022/09/21 01:39:29;;;;;;;2.08;1.17;;;;;;;22.98;40.24;94943.72;4979018;28;20025;-62
2022/09/21 01:41:54;;;;;;;2.30;1.10;;;;;;;23.48;40.35;95034.69;4947546;28;20050;-62
2022/09/21 01:44:22;;;;;;;1.38;0.98;;;;;;;23.20;40.44;94970.78;4955508;28;20676;-62
2022/09/21 01:46:47;;;;;;;1.73;1.10;;;;;;;23.38;40.00;94991.91;4964591;28;21186;-62
2022/09/21 01:49:22;;;;;;;1.90;1.20;;;;;;;23.45;40.04;95021.31;4970439;28;20518;-62
2022/09/21 01:51:51;;;;;;;1.33;1.10;;;;;;;23.53;40.04;95030.44;4957820;28;20153;-62
2022/09/21 01:54:20;;;;;;;1.65;1.30;;;;;;;23.42;39.92;95025.06;5000901;28;20051;-61
2022/09/21 01:56:50;;;;;;;1.60;1.10;;;;;;;23.43;40.35;95015.66;4988284;28;20520;-62
2022/09/21 01:59:25;;;;;;;2.15;1.02;;;;;;;23.48;40.03;95020.28;4959393;28;20043;-62
2022/09/21 02:01:53;;;;;;;1.73;1.42;;;;;;;23.44;39.90;95017.84;4977916;28;20026;-61
2022/09/21 02:04:19;;;;;;;1.52;0.95;;;;;;;22.78;40.10;94912.66;4984638;28;20065;-63
2022/09/21 02:06:45;;;;;;;1.92;1.27;;;;;;;22.94;40.22;94937.81;5004511;28;20026;-61
2022/09/21 02:09:11;;;;;;;1.85;1.20;;;;;;;23.52;40.53;95024.22;5004620;28;20195;-62
2022/09/21 02:11:41;;;;;;;1.23;1.08;;;;;;;23.08;40.29;94969.38;4995579;28;20034;-61
2022/09/21 02:14:08;;;;;;;1.73;1.20;;;;;;;22.95;40.39;94944.72;5012452;28;20041;-62
2022/09/21 02:16:35;;;;;;;1.60;1.00;;;;;;;22.76;39.95;94924.06;5008294;28;20125;-60
2022/09/21 02:19:12;;;;;;;1.20;0.98;;;;;;;23.54;40.05;95034.63;4996420;28;20065;-60
2022/09/21 02:21:54;;;;;;;1.35;0.98;;;;;;;23.24;40.39;94998.47;5000088;28;20037;-61
2022/09/21 02:24:24;;;;;;;1.77;1.10;;;;;;;23.52;40.47;95039.84;4980598;28;20054;-61
2022/09/21 02:26:53;;;;;;;1.45;1.17;;;;;;;23.45;40.45;95043.13;4978638;28;20113;-61
2022/09/21 02:29:25;;;;;;;1.23;1.00;;;;;;;23.47;40.44;95037.91;5003621;28;20038;-61
2022/09/21 02:31:54;;;;;;;1.40;1.05;;;;;;;23.37;40.23;95032.03;4990258;28;20057;-61
2022/09/21 02:34:19;;;;;;;1.83;1.30;;;;;;;23.50;40.47;95048.53;4968282;28;20357;-61
2022/09/21 02:36:51;;;;;;;1.60;1.13;;;;;;;23.17;40.20;94999.03;4987162;28;20630;-60
2022/09/21 02:39:20;;;;;;;1.40;0.90;;;;;;;23.42;40.61;95027.78;4965332;28;20057;-60
2022/09/21 02:41:56;;;;;;;1.77;1.10;;;;;;;22.97;40.47;94969.50;4961938;28;20199;-60
2022/09/21 02:44:35;;;;;;;2.20;1.60;;;;;;;23.47;40.33;95043.38;4977470;28;20042;-60
2022/09/21 02:47:09;;;;;;;1.50;1.10;;;;;;;23.39;39.77;95036.97;4971901;28;20045;-61
2022/09/21 02:49:38;;;;;;;1.42;0.90;;;;;;;23.18;40.27;94995.03;4968347;28;20045;-61
2022/09/21 02:52:07;;;;;;;2.13;1.00;;;;;;;23.24;40.46;95008.63;4971846;28;20026;-60
2022/09/21 02:54:33;;;;;;;1.70;1.40;;;;;;;23.37;40.42;95023.13;4962729;28;20030;-61
2022/09/21 02:56:58;;;;;;;1.58;1.23;;;;;;;22.90;40.29;94953.66;4976653;28;20034;-61
2022/09/21 02:59:24;;;;;;;1.75;1.00;;;;;;;23.20;40.06;94995.28;4965473;28;20546;-61
2022/09/21 03:01:50;;;;;;;2.13;1.30;;;;;;;23.49;40.39;95046.31;4994607;28;20418;-61
2022/09/21 03:04:16;;;;;;;1.60;1.10;;;;;;;23.50;40.24;95042.34;4969417;28;20112;-61
2022/09/21 03:06:41;;;;;;;1.58;1.00;;;;;;;23.17;40.14;95004.47;4982669;28;20022;-61
2022/09/21 03:09:07;;;;;;;1.52;1.10;;;;;;;23.41;40.29;95029.06;4983845;28;20037;-61
2022/09/21 03:11:34;;;;;;;2.33;1.70;;;;;;;23.12;40.29;94991.66;4982854;28;20054;-61
2022/09/21 03:14:02;;;;;;;1.77;1.20;;;;;;;23.43;39.96;95032.00;4992664;28;20909;-61
2022/09/21 03:16:28;;;;;;;1.73;1.33;;;;;;;23.47;40.26;95049.56;4997839;28;20050;-61
2022/09/21 03:18:53;;;;;;;1.95;1.13;;;;;;;22.86;40.31;94941.56;4993817;28;20121;-61
2022/09/21 03:21:19;;;;;;;1.15;1.00;;;;;;;23.48;40.53;95050.28;4989029;28;20025;-61
2022/09/21 03:23:44;;;;;;;1.80;1.10;;;;;;;23.49;40.86;95040.88;4967876;28;20042;-61
2022/09/21 03:26:09;;;;;;;1.48;1.20;;;;;;;23.28;40.33;95015.28;4993539;28;20092;-61
2022/09/21 03:28:35;;;;;;;1.95;1.10;;;;;;;22.99;40.47;94967.00;4983623;28;20049;-61
2022/09/21 03:31:00;;;;;;;1.35;1.00;;;;;;;23.41;40.13;95056.31;4989706;28;20029;-61
2022/09/21 03:33:26;;;;;;;1.58;1.10;;;;;;;23.45;40.01;95043.88;4971562;28;20768;-61
2022/09/21 03:35:51;;;;;;;1.50;1.10;;;;;;;23.10;40.08;94994.13;4988230;28;20038;-61
2022/09/21 03:38:18;;;;;;;1.77;1.00;;;;;;;23.31;40.50;95040.78;4994096;28;20073;-61
2022/09/21 03:40:47;;;;;;;1.63;1.00;;;;;;;22.82;40.43;94956.69;4995815;28;20040;-61
2022/09/21 03:43:13;;;;;;;1.35;0.93;;;;;;;23.05;40.39;94992.19;4974325;28;20045;-61
2022/09/21 03:45:41;;;;;;;1.25;0.98;;;;;;;23.47;40.43;95048.81;5000052;28;20113;-61
2022/09/21 03:48:06;;;;;;;1.50;1.02;;;;;;;22.97;40.12;94980.38;4989605;28;20137;-61
2022/09/21 03:50:32;;;;;;;1.50;0.98;;;;;;;22.65;40.33;94937.03;4992550;28;20046;-61
2022/09/21 03:52:57;;;;;;;1.10;0.90;;;;;;;23.38;40.16;95051.88;4996284;28;20490;-61
2022/09/21 03:55:23;;;;;;;1.23;1.00;;;;;;;23.19;40.50;95026.50;4985373;28;20045;-61
2022/09/21 03:57:48;;;;;;;1.52;1.10;;;;;;;23.40;40.24;95054.81;4998540;28;20140;-61
2022/09/21 04:00:14;;;;;;;1.80;1.00;;;;;;;23.42;40.51;95055.78;4997204;28;20045;-61
2022/09/21 04:02:39;;;;;;;2.00;0.88;;;;;;;23.32;40.39;95037.53;4985243;28;20042;-61
2022/09/21 04:05:06;;;;;;;1.30;1.15;;;;;;;23.32;40.75;95053.91;5003388;28;20049;-61
2022/09/21 04:07:33;;;;;;;1.77;1.20;;;;;;;23.31;40.26;95033.34;5003187;28;20038;-61
2022/09/21 04:09:59;;;;;;;1.45;0.93;;;;;;;23.32;40.32;95053.13;5003338;28;20060;-61
2022/09/21 04:12:25;;;;;;;1.52;1.10;;;;;;;23.00;40.43;94995.72;4989149;28;20518;-61
2022/09/21 04:14:50;;;;;;;1.85;1.10;;;;;;;23.19;40.72;95042.13;4985516;28;20100;-63
2022/09/21 04:17:16;;;;;;;3.40;1.20;;;;;;;22.97;40.23;94996.72;5003151;28;20037;-63
2022/09/21 04:19:43;;;;;;;1.92;1.10;;;;;;;22.90;40.14;94989.06;5003322;28;20038;-62
2022/09/21 04:22:10;;;;;;;1.35;1.20;;;;;;;23.37;40.63;95055.81;5002171;28;20143;-62
2022/09/21 04:24:38;;;;;;;1.30;0.90;;;;;;;23.40;40.22;95057.53;5001924;28;20172;-62
2022/09/21 04:27:04;;;;;;;1.63;1.20;;;;;;;23.10;40.33;95012.47;4987823;28;20041;-62
2022/09/21 04:29:29;;;;;;;1.20;0.90;;;;;;;23.26;40.74;95047.00;4975473;28;20061;-62
2022/09/21 04:31:55;;;;;;;1.38;0.93;;;;;;;23.17;40.70;95031.72;4968486;28;20069;-61
2022/09/21 04:34:21;;;;;;;1.40;1.00;;;;;;;23.34;40.68;95056.84;4996898;28;20077;-62
2022/09/21 04:36:46;;;;;;;1.25;0.88;;;;;;;23.22;40.66;95039.09;4967314;28;20030;-62
2022/09/21 04:39:12;;;;;;;1.67;1.20;;;;;;;23.38;40.38;95057.31;4993215;28;20022;-61
2022/09/21 04:41:37;;;;;;;1.50;1.10;;;;;;;23.36;40.27;95053.63;4979510;28;20038;-62
2022/09/21 04:44:03;;;;;;;1.30;1.00;;;;;;;23.43;40.63;95065.44;4981749;28;20034;-62
2022/09/21 04:46:29;;;;;;;1.27;1.00;;;;;;;23.10;40.51;94994.13;4981139;28;20039;-63
2022/09/21 04:48:54;;;;;;;2.50;1.13;;;;;;;23.40;40.29;95022.09;4982063;28;20503;-63
2022/09/21 04:51:20;;;;;;;1.90;1.13;;;;;;;23.73;39.77;95054.56;4981922;28;20038;-62
2022/09/21 04:53:45;;;;;;;2.42;1.30;;;;;;;23.34;39.63;94972.38;4979475;28;20562;-62
2022/09/21 04:56:13;;;;;;;1.65;1.00;;;;;;;23.72;39.40;94998.53;4980061;28;20047;-62
2022/09/21 04:58:38;;;;;;;1.33;1.00;;;;;;;23.87;39.36;95019.44;4949692;28;20458;-61
2022/09/21 05:01:05;;;;;;;1.50;1.02;;;;;;;24.22;39.55;95065.69;4981835;28;20042;-61
2022/09/21 05:03:30;;;;;;;1.60;1.10;;;;;;;24.27;39.44;95055.94;4978456;28;20053;-61
2022/09/21 05:05:56;;;;;;;1.55;1.02;;;;;;;24.39;39.07;95056.09;4981516;28;20116;-62
2022/09/21 05:10:01;;;;;;;2.03;1.00;;;;;;;24.16;39.33;95009.69;4984870;28;20141;-61
2022/09/21 05:11:11;;;;;;;2.05;1.05;;;;;;;24.09;39.31;95021.91;4977604;28;20149;-61
2022/09/21 05:13:37;;;;;;;2.17;1.00;;;;;;;24.74;38.75;95079.69;4988025;28;20491;-62
2022/09/21 05:16:03;;;;;;;1.35;1.00;;;;;;;24.78;38.93;95061.03;4995639;28;20042;-61
2022/09/21 05:18:28;;;;;;;1.77;1.02;;;;;;;24.63;38.46;95004.13;4982005;28;20048;-61
2022/09/21 05:20:57;;;;;;;1.95;1.30;;;;;;;25.06;38.44;95060.16;4999824;28;20559;-61
2022/09/21 05:23:23;;;;;;;2.55;1.05;;;;;;;24.73;38.32;94993.59;4990564;28;20041;-61
2022/09/21 05:25:49;;;;;;;1.45;1.10;;;;;;;25.11;38.19;95048.44;4981798;28;20041;-62
2022/09/21 05:28:17;;;;;;;1.58;1.15;;;;;;;24.31;38.25;94937.06;4989683;28;20527;-61
2022/09/21 05:30:44;;;;;;;2.85;1.13;;;;;;;24.93;38.40;95021.06;4981256;28;20027;-62
2022/09/21 05:33:10;;;;;;;1.83;1.10;;;;;;;25.30;38.12;95043.63;4980793;28;20046;-63
2022/09/21 05:35:55;;;;;;;1.60;1.10;;;;;;;25.15;37.85;95021.50;4976975;28;20133;-62
2022/09/21 05:38:21;;;;;;;2.63;1.10;;;;;;;25.12;37.77;95011.63;4965139;28;20468;-62
2022/09/21 05:40:49;;;;;;;2.72;1.20;;;;;;;25.31;38.40;95045.84;4981569;28;20054;-63
2022/09/21 05:43:15;;;;;;;1.75;1.08;;;;;;;25.58;37.92;95069.28;4980647;28;20831;-62
2022/09/21 05:45:43;;;;;;;3.10;1.00;;;;;;;25.50;37.91;95051.25;4980979;28;20034;-62
2022/09/21 05:48:15;;;;;;;1.85;1.10;;;;;;;25.79;37.79;95068.19;4962624;28;20264;-62
2022/09/21 05:50:49;;;;;;;2.65;1.10;;;;;;;25.21;37.62;94983.91;4979313;28;20161;-62
2022/09/21 05:53:18;;;;;;;3.10;1.30;;;;;;;25.22;37.56;94965.53;4963206;28;20528;-62
2022/09/21 05:55:47;;;;;;;3.85;1.30;;;;;;;25.19;38.35;95016.50;4961967;28;20042;-61
2022/09/21 05:58:41;;;;;;;2.22;1.00;;;;;;;25.74;38.23;95048.41;4979397;28;20042;-61
2022/09/21 06:01:30;;;;;;;2.90;1.00;;;;;;;25.65;37.03;95007.78;4978722;28;20054;-61
2022/09/21 06:03:55;;;;;;;2.60;1.05;;;;;;;26.06;37.18;95064.22;4980036;28;20026;-61
2022/09/21 06:06:21;;;;;;;1.67;1.00;;;;;;;25.69;36.99;95002.75;4979753;28;20534;-61
2022/09/21 06:08:46;;;;;;;2.08;1.05;;;;;;;25.75;36.83;95008.84;4979157;28;20536;-61
2022/09/21 06:11:12;;;;;;;1.40;1.10;;;;;;;25.86;36.95;95029.28;4979396;28;20047;-61
2022/09/21 06:13:39;;;;;;;2.35;1.20;;;;;;;26.21;36.98;95074.66;4963045;28;20216;-61
2022/09/21 06:16:05;;;;;;;1.98;1.25;;;;;;;26.20;36.96;95068.44;4980443;28;20133;-60
2022/09/21 06:18:31;;;;;;;2.25;1.30;;;;;;;26.23;36.93;95075.59;4980854;28;20026;-60
2022/09/21 06:20:56;;;;;;;1.73;1.27;;;;;;;25.97;36.72;95023.59;4963469;28;20107;-61
2022/09/21 06:23:22;;;;;;;2.83;1.10;;;;;;;26.26;36.59;95060.84;4979480;28;20054;-61
2022/09/21 06:25:51;;;;;;;2.83;1.33;;;;;;;26.44;36.17;95071.00;4980631;28;20030;-61
2022/09/21 06:28:17;;;;;;;1.77;1.15;;;;;;;26.04;36.65;95025.72;4978615;28;20133;-61
2022/09/21 06:30:43;;;;;;;2.88;1.38;;;;;;;26.36;36.23;95064.69;4981177;28;20033;-61
2022/09/21 06:33:09;;;;;;;2.08;1.30;;;;;;;26.49;36.17;95072.91;4975764;28;20120;-61
2022/09/21 06:35:35;;;;;;;2.15;1.30;;;;;;;26.14;36.21;95037.69;4979383;28;20124;-61
2022/09/21 06:38:02;;;;;;;2.08;1.38;;;;;;;25.82;36.39;95023.38;4979383;28;20050;-61
2022/09/21 06:40:27;;;;;;;2.63;1.30;;;;;;;26.19;37.27;95088.88;4957416;28;20038;-61
2022/09/21 06:42:57;;;;;;;2.80;1.20;;;;;;;25.94;37.25;95068.44;4961190;28;20042;-60
2022/09/21 06:45:22;;;;;;;2.30;1.45;;;;;;;25.75;37.68;95071.78;4980908;28;20117;-59
2022/09/21 06:47:48;;;;;;;2.60;1.15;;;;;;;25.37;37.58;95023.91;4982941;28;20521;-60
2022/09/21 06:50:13;;;;;;;2.38;1.35;;;;;;;25.81;38.17;95101.25;4978042;28;20046;-62
2022/09/21 06:52:40;;;;;;;2.60;1.20;;;;;;;25.69;38.15;95079.34;4985200;28;20050;-61
2022/09/21 06:55:06;;;;;;;2.60;1.42;;;;;;;25.37;37.86;95049.25;4984800;28;20296;-61
2022/09/21 06:57:32;;;;;;;2.28;1.17;;;;;;;25.33;38.28;95043.34;4985972;28;20557;-62
2022/09/21 06:59:58;;;;;;;3.67;1.60;;;;;;;25.22;38.32;95042.06;4993327;28;20088;-62
2022/09/21 07:02:23;;;;;;;1.92;1.17;;;;;;;24.95;38.43;94997.47;4978655;28;20042;-63
2022/09/21 07:04:48;;;;;;;1.83;1.33;;;;;;;25.53;38.55;95099.44;4979539;28;20431;-63
2022/09/21 07:07:14;;;;;;;2.90;1.40;;;;;;;25.40;38.05;95102.16;4967981;28;20475;-62
2022/09/21 07:09:40;;;;;;;1.95;1.30;;;;;;;25.07;38.40;95052.72;4980784;28;20673;-63
2022/09/21 07:12:06;;;;;;;2.10;1.20;;;;;;;25.34;38.31;95104.22;4964242;28;21580;-62
2022/09/21 07:14:32;;;;;;;3.13;1.23;;;;;;;25.03;38.23;95083.06;4995693;28;20765;-63
2022/09/21 07:16:58;;;;;;;3.70;1.38;;;;;;;25.18;38.35;95101.75;4993796;28;20042;-62
2022/09/21 07:19:24;;;;;;;1.63;1.05;;;;;;;25.12;38.44;95093.59;4986956;28;20042;-63
2022/09/21 07:21:51;;;;;;;1.92;1.10;;;;;;;25.14;37.83;95107.50;4991574;28;20089;-63
2022/09/21 07:24:17;;;;;;;1.73;1.05;;;;;;;24.72;38.51;95060.38;4999501;28;20101;-63
2022/09/21 07:26:42;;;;;;;2.33;1.13;;;;;;;24.66;38.04;95056.97;4981901;28;20527;-65
2022/09/21 07:29:08;;;;;;;1.88;0.85;;;;;;;24.68;37.70;95060.69;4983010;28;20235;-63
2022/09/21 07:31:33;;;;;;;3.28;1.10;;;;;;;24.35;38.14;95038.53;4966761;28;20042;-62
2022/09/21 07:33:59;;;;;;;2.95;1.52;;;;;;;24.52;38.09;95052.69;4983676;28;20033;-63
2022/09/21 07:36:24;;;;;;;2.85;1.60;;;;;;;24.61;38.14;95087.84;4988168;28;20034;-62
2022/09/21 07:38:50;;;;;;;3.83;1.00;;;;;;;24.42;38.43;95073.41;4976226;28;20440;-66
2022/09/21 07:41:16;;;;;;;2.35;1.10;;;;;;;24.89;38.29;95108.81;4994300;28;20145;-61
2022/09/21 07:43:41;;;;;;;2.15;1.13;;;;;;;24.69;38.48;95107.84;4983623;28;20649;-60
2022/09/21 07:46:09;;;;;;;2.30;1.23;;;;;;;24.82;38.37;95114.13;4981642;28;20866;-60
2022/09/21 07:48:34;;;;;;;1.60;1.00;;;;;;;24.71;38.33;95103.34;4984357;28;20522;-61
2022/09/21 07:51:04;;;;;;;2.17;1.20;;;;;;;24.76;38.50;95112.72;4996870;28;20060;-64
2022/09/21 07:53:31;;;;;;;2.85;1.40;;;;;;;24.80;38.50;95127.56;4985121;28;20030;-64
2022/09/21 07:56:15;;;;;;;2.90;1.08;;;;;;;24.51;38.27;95079.28;5002516;28;20026;-62
2022/09/21 08:01:26;;;;;;;3.15;1.33;;;;;;;24.47;38.16;95056.25;4968247;28;20175;-63
2022/09/21 08:03:53;;;;;;;2.08;0.90;;;;;;;24.39;38.24;95049.88;5002717;28;20030;-62
2022/09/21 08:06:19;;;;;;;2.28;1.05;;;;;;;24.68;38.28;95117.28;4989571;28;20022;-61
2022/09/21 08:08:46;;;;;;;3.35;1.10;;;;;;;24.13;38.38;95022.38;4981435;28;20034;-60
2022/09/21 08:11:12;;;;;;;2.05;1.40;;;;;;;24.40;38.10;95059.53;4992439;28;20038;-61
2022/09/21 08:13:38;;;;;;;2.55;1.10;;;;;;;24.45;38.39;95088.75;4982458;28;20053;-61
2022/09/21 08:16:03;;;;;;;3.65;1.15;;;;;;;24.25;38.05;95061.94;4981003;28;20125;-61
2022/09/21 08:18:29;;;;;;;9.00;1.15;;;;;;;24.18;38.18;95051.56;4982531;28;20117;-60
2022/09/21 08:20:55;;;;;;;1.88;1.13;;;;;;;24.53;38.29;95104.06;4979768;28;20200;-60
2022/09/21 08:23:21;;;;;;;1.92;0.90;;;;;;;24.65;38.37;95104.66;4982536;28;20108;-60
2022/09/21 08:25:47;;;;;;;1.58;0.90;;;;;;;24.67;38.06;95107.63;4982681;28;20271;-60
2022/09/21 08:28:13;;;;;;;2.60;0.90;;;;;;;24.64;38.10;95108.66;4982324;28;20046;-61
2022/09/21 08:30:39;;;;;;;2.85;0.90;;;;;;;24.14;38.31;95018.41;4984737;28;20747;-60
2022/09/21 08:33:05;;;;;;;4.30;1.17;;;;;;;24.66;37.74;95100.66;4975931;28;20059;-64
2022/09/21 08:35:31;;;;;;;1.27;0.60;;;;;;;23.75;38.33;94981.16;4964159;28;20500;-62
2022/09/21 08:37:57;;;;;;;2.92;0.95;;;;;;;24.34;38.00;95069.78;4984986;28;20048;-61
2022/09/21 08:40:22;;;;;;;2.25;1.10;;;;;;;24.53;38.01;95092.41;4983923;28;20440;-61
2022/09/21 08:43:09;;;;;;;1.90;1.00;;;;;;;24.04;38.17;95024.72;4958651;28;20033;-61
2022/09/21 08:45:44;;;;;;;2.00;1.15;;;;;;;24.37;38.07;95077.69;4955015;28;20521;-63
2022/09/21 08:48:31;;;;;;;1.67;0.90;;;;;;;24.20;37.86;95040.91;4965282;28;20034;-62
2022/09/21 08:50:59;;;;;;;2.65;0.88;;;;;;;24.14;38.41;95034.00;4963308;28;20753;-66
2022/09/21 08:53:45;;;;;;;2.42;0.90;;;;;;;24.51;38.25;95083.97;4963356;28;20050;-65
2022/09/21 08:56:12;;;;;;;2.13;1.02;;;;;;;24.50;38.64;95085.25;4976177;28;20049;-64
2022/09/21 08:58:39;;;;;;;2.60;1.00;;;;;;;24.23;38.65;95048.06;4978393;28;20120;-64
2022/09/21 09:01:11;;;;;;;1.67;0.90;;;;;;;24.51;38.51;95087.47;4959916;28;20243;-60
2022/09/21 09:04:07;;;;;;;1.90;0.90;;;;;;;24.46;38.73;95082.06;4981785;28;20031;-60
2022/09/21 09:06:35;;;;;;;2.53;0.80;;;;;;;24.65;38.33;95082.81;4978775;28;20523;-60
2022/09/21 09:09:20;;;;;;;2.55;1.00;;;;;;;24.76;38.16;95071.75;4980916;28;20038;-61
2022/09/21 09:12:02;;;;;;;2.03;1.00;;;;;;;24.85;38.17;95064.66;4981505;28;20424;-61
2022/09/21 09:14:47;;;;;;;2.00;0.85;;;;;;;24.97;38.00;95082.38;4972667;28;20038;-61
2022/09/21 09:17:37;;;;;;;4.20;1.05;;;;;;;25.05;37.88;95061.44;5008279;28;20140;-61
2022/09/21 09:20:05;;;;;;;2.72;1.02;;;;;;;25.14;37.90;95063.78;5012179;28;20049;-61
2022/09/21 09:22:34;;;;;;;1.83;0.90;;;;;;;24.89;37.88;95005.00;5010042;28;20041;-60
2022/09/21 09:25:03;;;;;;;2.92;1.10;;;;;;;25.08;37.46;95027.59;5005753;28;20026;-60
2022/09/21 09:27:39;;;;;;;2.63;1.30;;;;;;;24.98;37.04;94990.22;4986352;28;20022;-60
2022/09/21 09:30:07;;;;;;;5.85;2.20;;;;;;;25.45;37.96;95054.84;4980471;28;20046;-60
2022/09/21 09:32:35;;;;;;;3.72;1.60;;;;;;;25.40;37.70;95042.00;4981752;28;20034;-60
2022/09/21 09:35:12;;;;;;;4.78;1.20;;;;;;;25.53;37.38;95044.75;4984865;28;20049;-62
2022/09/21 09:37:38;;;;;;;3.10;1.33;;;;;;;25.25;36.91;94978.88;4999395;28;20042;-60
2022/09/21 09:40:06;;;;;;;4.13;1.20;;;;;;;25.77;36.84;95041.88;4980821;28;20072;-61
2022/09/21 09:42:40;;;;;;;5.00;1.30;;;;;;;25.79;36.30;95033.91;4968197;28;20038;-61
2022/09/21 09:45:24;;;;;;;2.35;1.05;;;;;;;25.85;36.75;95043.47;4999330;28;20038;-61
2022/09/21 09:48:01;;;;;;;2.17;1.10;;;;;;;25.76;36.56;95026.75;4958861;28;20046;-60
2022/09/21 09:50:34;;;;;;;3.10;0.98;;;;;;;26.08;35.96;95039.78;4973596;28;20057;-64
2022/09/21 09:53:19;;;;;;;2.38;1.10;;;;;;;25.71;35.16;94959.19;4999450;28;20038;-61
2022/09/21 09:55:48;;;;;;;2.10;1.00;;;;;;;26.19;35.10;95036.88;4981803;28;20046;-61
2022/09/21 09:59:05;;;;;;;2.30;1.10;;;;;;;25.61;35.51;94930.75;4982457;28;20038;-61
2022/09/21 10:01:48;;;;;;;2.38;0.90;;;;;;;25.69;35.70;94931.63;4957669;28;20049;-62
2022/09/21 10:04:16;;;;;;;1.48;0.80;;;;;;;26.09;35.29;94986.53;4987930;28;20042;-61
2022/09/21 10:06:41;;;;;;;3.60;1.10;;;;;;;26.13;35.43;94984.22;4992930;28;20029;-60
2022/09/21 10:09:23;;;;;;;2.67;0.98;;;;;;;26.42;34.98;95008.53;4982122;28;20116;-60
2022/09/21 10:11:49;;;;;;;2.88;1.02;;;;;;;26.25;34.71;94971.78;4985791;28;20053;-60
2022/09/21 10:14:20;;;;;;;2.70;0.80;;;;;;;26.56;34.79;95017.47;4982541;28;20034;-62
2022/09/21 10:16:46;;;;;;;1.60;0.90;;;;;;;26.48;34.85;95011.16;4967275;28;20038;-61
2022/09/21 10:19:20;;;;;;;3.30;1.15;;;;;;;25.97;34.41;94925.06;4980877;28;20050;-60
2022/09/21 10:21:45;;;;;;;1.98;0.70;;;;;;;26.58;34.56;95010.19;4961963;28;20048;-61
2022/09/21 10:24:35;;;;;;;1.92;1.00;;;;;;;26.68;34.65;95002.25;4977414;28;20483;-61
2022/09/21 10:27:14;;;;;;;4.72;0.90;;;;;;;26.74;34.29;95002.88;4980055;28;20046;-61
2022/09/21 10:29:43;;;;;;;2.97;0.90;;;;;;;26.74;34.19;94978.22;4962180;28;20526;-61
2022/09/21 10:32:11;;;;;;;1.60;1.00;;;;;;;26.70;34.17;94999.75;4978414;28;20077;-61
2022/09/21 10:34:37;;;;;;;1.00;0.68;;;;;;;25.95;33.93;94878.34;4979380;28;20594;-61
2022/09/21 10:37:24;;;;;;;0.98;0.70;;;;;;;26.88;33.92;94994.81;4961854;28;20018;-61
2022/09/21 10:39:49;;;;;;;2.20;1.10;;;;;;;26.86;33.69;94986.41;4979017;28;20058;-61
2022/09/21 10:42:16;;;;;;;1.85;0.80;;;;;;;26.40;33.80;94980.22;4977987;28;20104;-61
2022/09/21 10:44:45;;;;;;;1.13;0.73;;;;;;;26.48;33.69;94986.50;4941187;28;20053;-64
2022/09/21 10:47:30;;;;;;;;;;;;;;;26.73;33.83;94976.75;4961168;28;20659;-62
2022/09/21 10:49:57;;;;;;;1.80;0.70;;;;;;;26.16;34.25;94917.47;4980127;28;19922;-61
2022/09/21 10:52:42;;;;;;;2.13;0.90;;;;;;;26.61;34.29;94981.00;4944834;28;20045;-61
2022/09/21 10:55:16;;;;;;;1.83;0.80;;;;;;;26.51;34.33;94982.72;4978708;28;20508;-62
2022/09/21 10:57:42;;;;;;;2.25;0.68;;;;;;;26.44;34.22;94980.63;4980663;28;20049;-64
2022/09/21 11:00:22;;;;;;;1.05;0.60;;;;;;;26.35;34.65;94970.09;4961079;28;20058;-65
2022/09/21 11:02:49;;;;;;;2.22;0.70;;;;;;;25.67;34.78;94912.28;4977318;28;20038;-61
2022/09/21 11:05:19;;;;;;;1.15;0.60;;;;;;;25.93;34.72;94934.88;4979801;28;20126;-61
2022/09/21 11:07:51;;;;;;;1.00;0.57;;;;;;;25.89;34.89;94961.81;4978818;28;20515;-61
2022/09/21 11:10:25;;;;;;;1.65;0.60;;;;;;;25.86;34.96;94955.41;4977751;28;20050;-62
2022/09/21 11:13:23;;;;;;;1.52;0.52;;;;;;;25.92;34.94;94949.81;4978439;28;20100;-63
2022/09/21 11:15:56;;;;;;;1.38;0.70;;;;;;;25.60;35.46;94973.03;4925183;28;20038;-63
2022/09/21 11:18:57;;;;;;;1.80;0.73;;;;;;;25.43;35.65;94954.19;4962664;28;20026;-65
2022/09/21 11:21:31;;;;;;;1.10;0.50;;;;;;;25.72;35.01;94979.81;4978624;28;20038;-65
2022/09/21 11:24:38;;;;;;;1.05;0.70;;;;;;;25.31;35.66;94951.44;4962572;28;20045;-61
2022/09/21 11:27:27;;;;;;;2.35;0.55;;;;;;;25.14;35.77;94959.19;4900450;29;20044;-63
2022/09/21 11:30:02;;;;;;;1.20;0.80;;;;;;;25.57;35.56;94960.41;4961400;28;20041;-63
2022/09/21 11:32:36;;;;;;;1.92;0.60;;;;;;;25.63;35.49;94969.25;4977824;28;20674;-61
2022/09/21 11:35:34;;;;;;;0.90;0.60;;;;;;;25.63;35.59;94961.03;4978885;28;20088;-62
2022/09/21 11:38:17;;;;;;;1.98;0.60;;;;;;;25.68;35.73;94971.16;4982662;28;20054;-62
2022/09/21 11:41:10;;;;;;;1.08;0.60;;;;;;;25.72;35.61;94966.13;4969830;28;20133;-62
2022/09/21 11:43:57;;;;;;;1.13;0.60;;;;;;;25.64;35.47;94976.97;4986163;28;20129;-62
2022/09/21 11:46:23;;;;;;;1.48;0.55;;;;;;;25.53;36.04;94968.19;4998170;28;20069;-62
2022/09/21 11:49:26;;;;;;;1.35;0.70;;;;;;;25.40;35.92;94971.63;4999292;28;20110;-63
2022/09/21 11:52:04;;;;;;;0.95;0.50;;;;;;;25.12;36.52;94962.44;4997731;28;20029;-62